Time;durP1;ratioP1;P1;durP2;ratioP2;P2;SDS_P1;SDS_P2;PMS_P1;PMS_P2;Temp;Humidity;BMP_temperature;BMP_pressure;BME280_temperature;BME280_humidity;BME280_pressure;Samples;Min_cycle;Max_cycle;Signal;HPM_P1;HPM_P2
2023/06/27 00:01:04;;;;;;;13.27;12.07;;;;;;;16.54;100.00;92799.22;5021420;28;20241;-76
2023/06/27 00:03:31;;;;;;;13.70;12.33;;;;;;;16.59;100.00;92801.69;5026740;28;20314;-76
2023/06/27 00:06:00;;;;;;;12.53;11.63;;;;;;;16.31;100.00;92789.84;5025434;28;20231;-76
2023/06/27 00:08:27;;;;;;;14.47;13.27;;;;;;;16.47;100.00;92772.53;5023281;28;20826;-76
2023/06/27 00:10:53;;;;;;;14.20;13.00;;;;;;;16.35;100.00;92784.75;5025944;28;20214;-74
2023/06/27 00:13:20;;;;;;;12.77;11.67;;;;;;;16.51;100.00;92805.13;5025504;28;20189;-80
2023/06/27 00:15:48;;;;;;;14.10;13.00;;;;;;;16.34;100.00;92799.78;5013045;28;20227;-81
2023/06/27 00:18:17;;;;;;;14.00;12.73;;;;;;;16.45;100.00;92782.59;5013287;28;20208;-80
2023/06/27 00:20:42;;;;;;;14.23;12.83;;;;;;;16.36;100.00;92781.81;5006601;28;20227;-80
2023/06/27 00:23:22;;;;;;;14.33;13.23;;;;;;;16.39;100.00;92790.97;5010162;28;20211;-81
2023/06/27 00:25:47;;;;;;;13.53;12.43;;;;;;;16.33;100.00;92782.41;5042637;28;20216;-81
2023/06/27 00:28:13;;;;;;;13.17;12.20;;;;;;;16.20;100.00;92788.63;5009398;28;20226;-80
2023/06/27 00:30:39;;;;;;;14.33;13.23;;;;;;;16.13;100.00;92784.88;5010847;28;20235;-81
2023/06/27 00:33:04;;;;;;;12.50;11.50;;;;;;;16.32;100.00;92788.00;5013798;28;20199;-81
2023/06/27 00:35:32;;;;;;;13.83;12.73;;;;;;;16.22;100.00;92775.91;5012372;28;20215;-81
2023/06/27 00:37:59;;;;;;;13.07;12.07;;;;;;;16.28;100.00;92790.47;5004274;28;20192;-81
2023/06/27 00:40:24;;;;;;;13.90;12.50;;;;;;;16.21;100.00;92792.00;5008122;28;20238;-81
2023/06/27 00:42:50;;;;;;;12.73;11.63;;;;;;;16.21;100.00;92784.91;5005373;28;20239;-81
2023/06/27 00:45:15;;;;;;;14.07;13.00;;;;;;;16.24;100.00;92765.84;5011748;28;20226;-81
2023/06/27 00:47:41;;;;;;;13.20;12.10;;;;;;;16.14;100.00;92758.22;5009575;28;20175;-81
2023/06/27 00:50:07;;;;;;;14.30;13.17;;;;;;;16.19;100.00;92768.63;5009533;28;20632;-82
2023/06/27 00:52:32;;;;;;;12.70;11.33;;;;;;;16.22;100.00;92765.34;5009058;28;20214;-81
2023/06/27 00:54:59;;;;;;;12.60;11.70;;;;;;;16.41;100.00;92779.03;5011742;28;20223;-82
2023/06/27 00:57:24;;;;;;;13.20;12.20;;;;;;;16.30;100.00;92774.34;5007364;28;20276;-81
2023/06/27 00:59:51;;;;;;;11.93;11.03;;;;;;;16.40;100.00;92777.47;5008934;28;20223;-81
2023/06/27 01:02:16;;;;;;;12.23;11.30;;;;;;;16.11;100.00;92756.19;5011223;28;20178;-81
2023/06/27 01:04:41;;;;;;;13.87;12.57;;;;;;;16.15;100.00;92769.53;5006074;28;20231;-81
2023/06/27 01:07:17;;;;;;;11.83;10.93;;;;;;;16.23;100.00;92772.19;5043008;28;20211;-80
2023/06/27 01:09:50;;;;;;;11.60;10.80;;;;;;;16.04;100.00;92764.59;5010104;28;20222;-80
2023/06/27 01:12:34;;;;;;;12.53;11.40;;;;;;;16.07;100.00;92760.53;5007867;28;20192;-81
2023/06/27 01:15:02;;;;;;;12.77;11.57;;;;;;;16.04;100.00;92769.06;4997314;28;20288;-80
2023/06/27 01:17:28;;;;;;;12.73;11.83;;;;;;;15.92;100.00;92776.78;4985643;28;20223;-81
2023/06/27 01:19:55;;;;;;;13.17;11.97;;;;;;;15.91;100.00;92777.84;4990998;28;20227;-80
2023/06/27 01:22:36;;;;;;;13.57;12.40;;;;;;;16.02;100.00;92772.00;5009131;28;20191;-81
2023/06/27 01:25:03;;;;;;;11.57;10.67;;;;;;;16.15;100.00;92759.00;5009499;28;20283;-81
2023/06/27 01:27:29;;;;;;;12.90;11.90;;;;;;;16.13;100.00;92771.69;5005229;28;20214;-82
2023/06/27 01:29:55;;;;;;;13.27;12.33;;;;;;;16.07;100.00;92757.91;5010087;28;20223;-80
2023/06/27 01:32:23;;;;;;;13.00;12.10;;;;;;;16.11;100.00;92768.63;5017777;28;20188;-80
2023/06/27 01:35:03;;;;;;;13.57;12.60;;;;;;;16.04;100.00;92763.78;5005965;28;20227;-80
2023/06/27 01:37:31;;;;;;;13.10;12.03;;;;;;;15.93;100.00;92773.06;5039837;28;20192;-81
2023/06/27 01:40:06;;;;;;;13.33;12.43;;;;;;;15.94;100.00;92769.34;5009491;28;20233;-80
2023/06/27 01:42:37;;;;;;;12.50;11.60;;;;;;;15.90;100.00;92753.41;5010010;28;20213;-80
2023/06/27 01:45:04;;;;;;;13.60;12.30;;;;;;;15.98;100.00;92770.28;5009488;28;20282;-80
2023/06/27 01:47:34;;;;;;;14.00;12.57;;;;;;;15.89;100.00;92772.13;5008521;28;20279;-80
2023/06/27 01:50:01;;;;;;;12.37;11.23;;;;;;;15.94;100.00;92775.41;5012783;28;20243;-80
2023/06/27 01:52:27;;;;;;;12.93;11.67;;;;;;;15.84;100.00;92772.28;5010624;28;20191;-80
2023/06/27 01:54:52;;;;;;;12.90;11.90;;;;;;;15.84;100.00;92767.75;5010789;28;20211;-79
2023/06/27 01:57:18;;;;;;;14.00;12.77;;;;;;;15.71;100.00;92755.53;5009890;28;20191;-80
2023/06/27 01:59:43;;;;;;;11.77;10.83;;;;;;;15.86;100.00;92770.09;5008041;28;20246;-80
2023/06/27 02:02:08;;;;;;;12.83;11.83;;;;;;;15.89;100.00;92769.50;5010447;28;20188;-80
2023/06/27 02:04:34;;;;;;;12.20;11.30;;;;;;;15.90;100.00;92774.47;5007410;28;20219;-81
2023/06/27 02:06:59;;;;;;;12.50;11.50;;;;;;;15.68;100.00;92748.22;5009449;28;20179;-80
2023/06/27 02:09:25;;;;;;;14.37;13.07;;;;;;;15.64;100.00;92759.69;5009505;28;20227;-80
2023/06/27 02:11:50;;;;;;;13.27;12.17;;;;;;;15.64;100.00;92749.16;5020882;28;20183;-80
2023/06/27 02:14:15;;;;;;;13.80;12.53;;;;;;;15.55;100.00;92767.53;5013580;28;20194;-80
2023/06/27 02:16:41;;;;;;;12.10;11.10;;;;;;;15.50;100.00;92754.50;5042619;28;20258;-79
2023/06/27 02:19:06;;;;;;;13.77;12.53;;;;;;;15.66;100.00;92773.28;5009887;28;20235;-80
2023/06/27 02:21:31;;;;;;;13.00;12.00;;;;;;;15.63;100.00;92772.06;5009739;28;20184;-79
2023/06/27 02:23:57;;;;;;;13.83;12.83;;;;;;;15.81;100.00;92771.00;5010179;28;20211;-79
2023/06/27 02:26:22;;;;;;;12.33;11.47;;;;;;;15.85;100.00;92776.44;5010078;28;20283;-79
2023/06/27 02:28:48;;;;;;;13.80;12.40;;;;;;;15.73;100.00;92779.69;5024867;28;20215;-80
2023/06/27 02:31:14;;;;;;;13.70;12.60;;;;;;;15.69;100.00;92762.16;5020161;28;20279;-80
2023/06/27 02:33:39;;;;;;;13.67;12.33;;;;;;;15.63;100.00;92747.59;5010477;28;20207;-80
2023/06/27 02:36:06;;;;;;;14.47;13.27;;;;;;;15.73;100.00;92776.28;5009670;28;20250;-81
2023/06/27 02:38:31;;;;;;;15.57;11.87;;;;;;;15.56;100.00;92761.22;5008032;28;20284;-78
2023/06/27 02:40:56;;;;;;;12.53;11.63;;;;;;;15.58;100.00;92760.91;5009091;28;20223;-79
2023/06/27 02:43:23;;;;;;;14.27;13.27;;;;;;;15.74;100.00;92769.91;5028721;28;20214;-79
2023/06/27 02:45:48;;;;;;;15.67;13.77;;;;;;;15.78;100.00;92768.25;5019770;28;20223;-80
2023/06/27 02:48:13;;;;;;;14.23;12.93;;;;;;;15.58;100.00;92737.22;5009146;28;20191;-80
2023/06/27 02:50:39;;;;;;;13.37;12.40;;;;;;;15.76;100.00;92773.81;5017998;28;20222;-80
2023/06/27 02:53:04;;;;;;;13.97;12.67;;;;;;;15.74;100.00;92775.19;5019216;28;20202;-80
2023/06/27 02:55:30;;;;;;;14.87;13.70;;;;;;;15.68;100.00;92765.88;5009740;28;20261;-79
2023/06/27 02:57:55;;;;;;;12.83;11.87;;;;;;;15.87;100.00;92775.06;5010577;28;20183;-80
2023/06/27 03:00:21;;;;;;;13.43;12.40;;;;;;;15.91;100.00;92780.47;5008596;28;20274;-79
2023/06/27 03:02:46;;;;;;;13.93;12.73;;;;;;;15.88;100.00;92766.09;5008615;28;20235;-80
2023/06/27 03:05:11;;;;;;;14.43;12.93;;;;;;;15.95;100.00;92766.41;5007887;28;20219;-80
2023/06/27 03:07:37;;;;;;;13.80;12.70;;;;;;;16.12;100.00;92781.47;5009512;28;20199;-80
2023/06/27 03:10:03;;;;;;;13.40;12.40;;;;;;;16.34;100.00;92775.31;5008333;28;20250;-80
2023/06/27 03:12:28;;;;;;;15.20;13.83;;;;;;;16.37;100.00;92761.50;5021678;28;20183;-80
2023/06/27 03:14:53;;;;;;;14.47;13.13;;;;;;;16.49;100.00;92759.84;5009916;28;20247;-80
2023/06/27 03:17:19;;;;;;;13.70;12.40;;;;;;;16.67;100.00;92773.78;5009948;28;20195;-81
2023/06/27 03:19:44;;;;;;;13.50;12.40;;;;;;;16.78;100.00;92767.88;5009552;28;20227;-80
2023/06/27 03:22:09;;;;;;;17.43;12.33;;;;;;;17.03;100.00;92769.69;5013311;28;20191;-80
2023/06/27 03:24:35;;;;;;;13.63;12.33;;;;;;;17.22;100.00;92767.50;5009130;28;20239;-80
2023/06/27 03:27:00;;;;;;;12.97;11.10;;;;;;;17.54;100.00;92784.66;5010568;28;20199;-74
2023/06/27 03:29:25;;;;;;;18.07;12.00;;;;;;;17.82;100.00;92791.03;5009782;28;20232;-74
2023/06/27 03:31:51;;;;;;;13.03;11.87;;;;;;;17.99;100.00;92784.91;5010066;28;20197;-74
2023/06/27 03:34:16;;;;;;;13.53;12.43;;;;;;;17.89;100.00;92788.69;5009468;28;20210;-74
2023/06/27 03:36:42;;;;;;;14.10;12.80;;;;;;;17.83;100.00;92789.19;5009865;28;20260;-74
2023/06/27 03:39:07;;;;;;;13.03;11.93;;;;;;;17.82;100.00;92790.28;5008803;28;20196;-74
2023/06/27 03:41:32;;;;;;;12.17;11.20;;;;;;;17.86;100.00;92781.41;5041356;28;20185;-74
2023/06/27 03:43:58;;;;;;;11.20;10.43;;;;;;;17.83;100.00;92791.81;5010017;28;20211;-77
2023/06/27 03:46:24;;;;;;;12.67;11.70;;;;;;;17.96;100.00;92788.19;5005642;28;20233;-72
2023/06/27 03:48:54;;;;;;;12.93;12.03;;;;;;;17.99;100.00;92796.28;5007766;28;20187;-73
2023/06/27 03:51:19;;;;;;;13.40;12.50;;;;;;;18.19;100.00;92795.53;5011762;28;20287;-74
2023/06/27 03:53:44;;;;;;;13.77;12.67;;;;;;;18.42;100.00;92804.75;5011977;28;21779;-72
2023/06/27 03:56:10;;;;;;;13.90;12.53;;;;;;;18.63;100.00;92800.22;5011874;28;20216;-72
2023/06/27 03:58:35;;;;;;;12.67;11.50;;;;;;;18.72;100.00;92805.47;5044193;28;20197;-74
2023/06/27 04:01:01;;;;;;;13.93;12.37;;;;;;;18.82;100.00;92807.69;5011889;28;20244;-71
2023/06/27 04:03:26;;;;;;;13.23;12.13;;;;;;;18.94;100.00;92810.44;5011886;28;20245;-70
2023/06/27 04:05:51;;;;;;;12.97;11.97;;;;;;;18.84;100.00;92800.22;5011745;28;20316;-70
2023/06/27 04:08:17;;;;;;;13.23;12.23;;;;;;;18.92;100.00;92817.91;5011410;28;20245;-71
2023/06/27 04:10:42;;;;;;;12.43;11.57;;;;;;;19.23;100.00;92810.31;5012580;28;20248;-71
2023/06/27 04:13:09;;;;;;;13.55;12.45;;;;;;;19.62;98.49;92816.94;5023884;28;20184;-68
2023/06/27 04:15:39;;;;;;;12.00;10.90;;;;;;;19.86;96.35;92822.28;5012276;28;20238;-67
2023/06/27 04:18:07;;;;;;;12.87;11.60;;;;;;;19.62;94.48;92820.38;5013086;28;20219;-69
2023/06/27 04:20:33;;;;;;;13.43;12.33;;;;;;;19.49;96.10;92813.50;5013498;28;20227;-68
2023/06/27 04:22:58;;;;;;;14.02;12.60;;;;;;;19.63;96.77;92811.31;5013021;28;20250;-68
2023/06/27 04:25:29;;;;;;;14.07;12.87;;;;;;;19.64;97.92;92823.47;5011613;28;20227;-71
2023/06/27 04:27:54;;;;;;;14.18;12.98;;;;;;;19.44;96.97;92828.84;5013235;28;20224;-69
2023/06/27 04:30:20;;;;;;;13.20;12.18;;;;;;;19.55;95.99;92820.13;5014727;28;20229;-70
2023/06/27 04:32:48;;;;;;;14.67;12.93;;;;;;;18.94;99.40;92831.59;5012833;28;20653;-70
2023/06/27 04:35:15;;;;;;;14.45;13.05;;;;;;;20.63;93.74;92825.50;5012250;28;20248;-75
2023/06/27 04:37:41;;;;;;;14.70;13.32;;;;;;;22.93;79.97;92832.94;5012635;28;20199;-70
2023/06/27 04:40:08;;;;;;;13.32;12.02;;;;;;;22.34;80.22;92833.13;5011791;28;20226;-70
2023/06/27 04:42:33;;;;;;;14.05;12.82;;;;;;;21.03;86.12;92830.09;5012529;28;20191;-70
2023/06/27 04:44:58;;;;;;;15.23;13.77;;;;;;;21.11;87.81;92835.25;5022221;28;20251;-70
2023/06/27 04:47:24;;;;;;;14.77;13.48;;;;;;;21.82;82.82;92827.31;5011320;28;20190;-70
2023/06/27 04:49:49;;;;;;;15.82;14.38;;;;;;;21.28;86.12;92836.81;5011035;28;20702;-70
2023/06/27 04:52:15;;;;;;;14.00;12.55;;;;;;;20.53;89.85;92839.22;5011344;28;20884;-70
2023/06/27 04:54:40;;;;;;;18.05;15.35;;;;;;;20.52;89.93;92832.38;5010374;28;20237;-70
2023/06/27 04:57:06;;;;;;;14.80;13.35;;;;;;;20.18;90.86;92824.88;5015528;28;20207;-70
2023/06/27 04:59:31;;;;;;;16.15;14.48;;;;;;;20.29;90.65;92827.84;5022499;28;20231;-70
2023/06/27 05:01:57;;;;;;;16.80;14.43;;;;;;;20.30;90.50;92840.00;5011460;28;20191;-71
2023/06/27 05:04:22;;;;;;;18.05;15.93;;;;;;;20.09;92.03;92836.66;5003554;28;20234;-71
2023/06/27 05:06:48;;;;;;;14.48;13.18;;;;;;;20.48;87.46;92836.78;5010310;28;20187;-71
2023/06/27 05:09:13;;;;;;;14.85;13.40;;;;;;;21.01;88.17;92842.91;5010057;28;20306;-71
2023/06/27 05:11:39;;;;;;;16.17;14.55;;;;;;;21.92;80.88;92848.06;5048011;28;20200;-71
2023/06/27 05:14:04;;;;;;;15.40;13.95;;;;;;;21.70;80.96;92835.31;5043970;28;20225;-71
2023/06/27 05:16:29;;;;;;;15.40;14.10;;;;;;;21.87;81.50;92843.75;5009871;28;20221;-71
2023/06/27 05:18:55;;;;;;;15.85;14.27;;;;;;;22.74;79.00;92844.31;5011572;28;20199;-70
2023/06/27 05:21:21;;;;;;;14.98;13.52;;;;;;;23.41;76.52;92862.50;5012104;28;20228;-70
2023/06/27 05:23:46;;;;;;;15.00;12.80;;;;;;;23.17;76.19;92862.78;5010107;28;20232;-70
2023/06/27 05:26:11;;;;;;;15.55;13.95;;;;;;;22.36;78.39;92857.50;5010178;28;20288;-71
2023/06/27 05:28:37;;;;;;;14.40;13.00;;;;;;;21.84;81.14;92851.63;5011008;28;20189;-71
2023/06/27 05:31:03;;;;;;;16.02;14.38;;;;;;;21.59;84.64;92856.28;5013475;28;20237;-71
2023/06/27 05:33:28;;;;;;;15.68;14.20;;;;;;;22.02;83.04;92852.88;5010744;28;20176;-71
2023/06/27 05:35:53;;;;;;;16.95;15.15;;;;;;;22.28;79.07;92855.78;5009834;28;20294;-71
2023/06/27 05:38:19;;;;;;;16.55;14.27;;;;;;;22.73;78.99;92866.75;5010318;28;20222;-70
2023/06/27 05:40:44;;;;;;;14.63;13.18;;;;;;;25.75;69.07;92869.28;5010078;28;20261;-69
2023/06/27 05:43:09;;;;;;;18.67;13.43;;;;;;;27.98;57.36;92878.59;5010677;28;20225;-70
2023/06/27 05:45:35;;;;;;;16.48;13.15;;;;;;;27.51;57.90;92876.09;5008545;28;21661;-71
2023/06/27 05:48:00;;;;;;;16.60;14.23;;;;;;;27.58;56.63;92870.78;5010148;28;20196;-70
2023/06/27 05:50:27;;;;;;;14.35;12.63;;;;;;;28.68;54.12;92873.34;5009362;28;20226;-70
2023/06/27 05:52:52;;;;;;;16.75;13.98;;;;;;;31.72;45.35;92880.16;5010063;28;20282;-70
2023/06/27 05:55:18;;;;;;;14.48;13.15;;;;;;;33.76;40.91;92879.84;5009079;28;20223;-70
2023/06/27 05:57:43;;;;;;;14.32;12.77;;;;;;;34.04;39.18;92876.59;5010399;28;20279;-71
2023/06/27 06:00:11;;;;;;;14.68;13.18;;;;;;;35.30;34.93;92889.97;5008482;28;20231;-72
2023/06/27 06:02:37;;;;;;;13.48;12.18;;;;;;;35.82;34.82;92897.22;5009859;28;20202;-72
2023/06/27 06:05:04;;;;;;;14.52;13.07;;;;;;;33.84;37.76;92884.69;5009374;28;20230;-71
2023/06/27 06:07:30;;;;;;;14.68;13.27;;;;;;;33.11;39.92;92886.03;5009969;28;20268;-71
2023/06/27 06:09:55;;;;;;;13.48;12.30;;;;;;;31.55;44.21;92880.38;5040949;28;20284;-71
2023/06/27 06:12:21;;;;;;;15.55;13.95;;;;;;;31.42;44.38;92882.84;5008745;28;21101;-71
2023/06/27 06:14:46;;;;;;;14.80;13.40;;;;;;;32.98;39.69;92887.78;5008275;28;20226;-71
2023/06/27 06:17:12;;;;;;;13.93;12.57;;;;;;;35.90;35.09;92879.53;5009575;28;20184;-70
2023/06/27 06:19:37;;;;;;;15.52;12.75;;;;;;;36.48;33.56;92897.31;5009110;28;20242;-70
2023/06/27 06:22:03;;;;;;;20.05;14.93;;;;;;;36.28;32.29;92896.69;5006154;28;20176;-70
2023/06/27 06:24:28;;;;;;;13.32;12.10;;;;;;;35.67;34.32;92885.19;5008550;28;20233;-71
2023/06/27 06:26:53;;;;;;;12.00;10.70;;;;;;;36.95;32.41;92898.97;5009754;28;20191;-71
2023/06/27 06:29:19;;;;;;;13.50;10.93;;;;;;;38.39;30.02;92896.00;5006223;28;20191;-71
2023/06/27 06:31:45;;;;;;;12.93;11.63;;;;;;;35.73;33.12;92883.47;5007341;28;20188;-70
2023/06/27 06:34:11;;;;;;;15.13;11.85;;;;;;;35.24;34.06;92880.81;5008913;28;20199;-72
2023/06/27 06:36:37;;;;;;;12.75;11.57;;;;;;;35.47;33.91;92877.91;5009131;28;20207;-71
2023/06/27 06:39:02;;;;;;;13.00;11.68;;;;;;;35.32;33.52;92870.53;5009272;28;20194;-72
2023/06/27 06:41:27;;;;;;;14.00;12.55;;;;;;;37.97;29.95;92886.63;5008450;28;20223;-72
2023/06/27 06:43:53;;;;;;;13.30;12.05;;;;;;;38.00;29.54;92883.00;5008532;28;20274;-72
2023/06/27 06:46:18;;;;;;;13.57;12.13;;;;;;;37.63;30.38;92873.78;5008541;28;20910;-71
2023/06/27 06:48:43;;;;;;;12.13;10.95;;;;;;;36.97;31.34;92874.00;5009123;28;20203;-71
2023/06/27 06:51:09;;;;;;;12.27;11.15;;;;;;;34.90;34.24;92861.50;5009006;28;20230;-71
2023/06/27 06:53:34;;;;;;;12.13;11.13;;;;;;;34.03;36.49;92854.13;5009286;28;20191;-71
2023/06/27 06:56:00;;;;;;;14.75;13.10;;;;;;;30.25;43.73;92846.41;5008882;28;20227;-72
2023/06/27 06:58:25;;;;;;;13.23;11.88;;;;;;;27.48;51.29;92841.97;5008757;28;20200;-70
2023/06/27 07:00:51;;;;;;;14.02;12.82;;;;;;;26.34;58.88;92828.97;5008695;28;20241;-70
2023/06/27 07:03:16;;;;;;;14.88;13.50;;;;;;;26.22;56.26;92834.63;5008659;28;20239;-71
2023/06/27 07:05:41;;;;;;;16.67;13.18;;;;;;;25.16;60.19;92831.88;5008309;28;20242;-70
2023/06/27 07:08:07;;;;;;;14.27;12.85;;;;;;;23.81;72.57;92826.69;5008702;28;20222;-70
2023/06/27 07:10:33;;;;;;;14.60;12.90;;;;;;;23.72;70.00;92825.03;5008504;28;20285;-70
2023/06/27 07:12:59;;;;;;;15.18;13.88;;;;;;;24.02;69.88;92827.06;5017414;28;20184;-71
2023/06/27 07:15:29;;;;;;;16.00;14.23;;;;;;;24.32;67.23;92823.41;5008683;28;20234;-70
2023/06/27 07:17:54;;;;;;;16.25;14.55;;;;;;;23.78;71.61;92807.59;5020516;28;20187;-71
2023/06/27 07:20:20;;;;;;;16.23;14.60;;;;;;;23.53;69.15;92835.69;5013414;28;20301;-71
2023/06/27 07:22:46;;;;;;;15.95;14.43;;;;;;;23.84;71.48;92833.97;5009445;28;20206;-70
2023/06/27 07:25:12;;;;;;;18.13;16.45;;;;;;;24.06;70.53;92827.91;5011567;28;20226;-69
2023/06/27 07:27:37;;;;;;;14.93;13.63;;;;;;;23.92;69.04;92824.97;5011752;28;20199;-70
2023/06/27 07:30:03;;;;;;;14.95;13.43;;;;;;;24.06;70.15;92823.38;5013995;28;20222;-71
2023/06/27 07:32:28;;;;;;;16.65;14.70;;;;;;;23.95;67.75;92822.38;5013492;28;20198;-70
2023/06/27 07:34:53;;;;;;;14.77;13.32;;;;;;;23.81;68.24;92810.69;5013294;28;21272;-71
2023/06/27 07:37:19;;;;;;;15.15;13.00;;;;;;;23.85;69.13;92827.50;5013423;28;20527;-69
2023/06/27 07:39:44;;;;;;;13.57;12.27;;;;;;;23.97;68.44;92824.72;5013370;28;20237;-71
2023/06/27 07:42:11;;;;;;;15.80;14.18;;;;;;;23.88;70.34;92816.16;5012917;28;20213;-70
2023/06/27 07:44:36;;;;;;;13.75;12.65;;;;;;;23.72;69.75;92813.59;5045245;28;20229;-71
2023/06/27 07:47:02;;;;;;;14.30;12.85;;;;;;;23.27;68.63;92814.28;5013130;28;20673;-73
2023/06/27 07:49:27;;;;;;;14.43;13.07;;;;;;;23.45;72.70;92830.59;5012943;28;20230;-70
2023/06/27 07:51:52;;;;;;;14.43;12.98;;;;;;;23.66;71.28;92834.44;5013500;28;20178;-70
2023/06/27 07:54:19;;;;;;;14.32;13.02;;;;;;;23.60;69.91;92833.19;5012818;28;20182;-71
2023/06/27 07:56:46;;;;;;;15.40;13.10;;;;;;;23.33;71.85;92838.75;5012707;28;20198;-71
2023/06/27 07:59:13;;;;;;;14.00;12.70;;;;;;;23.62;70.94;92838.16;5013372;28;20243;-70
2023/06/27 08:01:40;;;;;;;15.88;12.90;;;;;;;23.27;71.15;92826.84;5012988;28;20194;-71
2023/06/27 08:04:05;;;;;;;15.98;13.32;;;;;;;23.60;73.14;92816.41;5012391;28;20233;-71
2023/06/27 08:06:31;;;;;;;13.88;12.48;;;;;;;23.95;69.41;92822.38;5012126;28;20194;-70
2023/06/27 08:08:56;;;;;;;13.50;12.18;;;;;;;23.65;73.19;92830.25;5013310;28;20183;-70
2023/06/27 08:11:22;;;;;;;13.57;12.18;;;;;;;23.15;72.13;92833.03;5016791;28;20267;-69
2023/06/27 08:13:47;;;;;;;14.00;12.80;;;;;;;23.79;70.29;92835.03;5020353;28;20197;-71
2023/06/27 08:16:12;;;;;;;12.52;11.43;;;;;;;23.85;69.64;92838.19;5015951;28;20232;-71
2023/06/27 08:18:38;;;;;;;13.45;12.40;;;;;;;23.86;70.34;92839.75;5013100;28;20207;-71
2023/06/27 08:21:06;;;;;;;13.13;11.93;;;;;;;23.98;66.37;92834.25;5012056;28;20221;-70
2023/06/27 08:23:31;;;;;;;13.65;12.50;;;;;;;24.03;63.95;92839.31;5012475;28;20217;-70
2023/06/27 08:25:57;;;;;;;12.43;11.13;;;;;;;23.84;65.12;92824.09;5011258;28;20234;-70
2023/06/27 08:28:22;;;;;;;12.90;11.90;;;;;;;23.85;66.13;92822.19;5051944;28;20773;-70
2023/06/27 08:30:48;;;;;;;12.88;11.95;;;;;;;24.01;64.49;92836.22;5012614;28;20258;-70
2023/06/27 08:33:14;;;;;;;13.93;12.85;;;;;;;24.11;60.40;92835.63;5012814;28;20270;-70
2023/06/27 08:35:39;;;;;;;12.13;11.18;;;;;;;24.05;62.84;92829.06;5011464;28;20214;-70
2023/06/27 08:38:05;;;;;;;12.60;11.40;;;;;;;23.50;64.85;92833.75;5012497;28;20199;-71
2023/06/27 08:40:35;;;;;;;13.00;11.73;;;;;;;24.08;63.14;92825.69;5011389;28;20242;-70
2023/06/27 08:43:01;;;;;;;11.90;10.90;;;;;;;23.97;65.75;92820.13;5012013;28;20217;-70
2023/06/27 08:45:26;;;;;;;12.98;11.80;;;;;;;24.31;65.23;92823.75;5001098;28;20233;-71
2023/06/27 08:47:52;;;;;;;10.75;9.95;;;;;;;24.66;61.31;92832.31;5012434;28;20177;-71
2023/06/27 08:50:20;;;;;;;13.90;12.65;;;;;;;24.45;61.60;92821.31;5011590;28;20215;-70
2023/06/27 08:52:57;;;;;;;12.43;11.43;;;;;;;24.08;62.29;92817.69;5012487;28;20205;-71
2023/06/27 08:55:35;;;;;;;12.63;11.63;;;;;;;24.16;62.02;92803.28;5011470;28;20466;-72
2023/06/27 08:58:07;;;;;;;12.15;11.25;;;;;;;24.05;64.50;92827.16;5006741;28;20250;-72
2023/06/27 09:00:33;;;;;;;12.32;11.32;;;;;;;24.06;63.76;92822.59;5010944;28;20224;-71
2023/06/27 09:02:59;;;;;;;13.45;12.35;;;;;;;23.91;62.77;92821.53;5009710;28;20249;-73
2023/06/27 09:05:24;;;;;;;14.60;11.65;;;;;;;23.83;62.68;92817.19;5010301;28;20230;-72
2023/06/27 09:07:50;;;;;;;13.40;12.15;;;;;;;24.56;60.76;92820.31;5011216;28;20190;-73
2023/06/27 09:10:15;;;;;;;12.45;11.18;;;;;;;24.52;57.48;92824.06;5010048;28;20234;-72
2023/06/27 09:12:45;;;;;;;12.75;11.60;;;;;;;24.07;62.55;92808.13;5009292;28;20237;-71
2023/06/27 09:15:11;;;;;;;16.00;10.32;;;;;;;23.55;59.65;92808.69;5010691;28;20220;-71
2023/06/27 09:17:37;;;;;;;12.45;11.45;;;;;;;24.26;57.06;92816.84;5014258;28;20204;-72
2023/06/27 09:20:05;;;;;;;12.20;11.15;;;;;;;23.69;58.06;92815.06;5007691;28;20226;-71
2023/06/27 09:22:31;;;;;;;12.75;11.65;;;;;;;24.01;60.12;92825.53;5010948;28;20171;-71
2023/06/27 09:25:14;;;;;;;11.77;10.75;;;;;;;24.21;58.52;92817.13;5010427;28;20241;-72
2023/06/27 09:27:39;;;;;;;11.77;10.88;;;;;;;24.49;57.81;92819.47;5009159;28;20205;-72
2023/06/27 09:30:10;;;;;;;11.98;11.15;;;;;;;24.45;56.02;92810.63;5010264;28;20261;-71
2023/06/27 09:32:58;;;;;;;9.95;9.15;;;;;;;24.84;54.40;92820.00;5006428;28;20198;-71
2023/06/27 09:35:25;;;;;;;11.60;10.70;;;;;;;24.49;55.92;92822.13;5009982;28;20239;-71
2023/06/27 09:37:51;;;;;;;10.55;9.52;;;;;;;24.30;53.10;92824.88;5010289;28;20218;-72
2023/06/27 09:40:27;;;;;;;12.65;11.63;;;;;;;24.72;52.96;92823.66;5009506;28;20234;-72
2023/06/27 09:42:54;;;;;;;11.45;10.55;;;;;;;24.20;54.44;92823.59;5008759;28;20224;-71
2023/06/27 09:45:21;;;;;;;11.73;10.63;;;;;;;24.49;57.74;92811.44;5008514;28;20289;-72
2023/06/27 09:47:51;;;;;;;10.95;10.15;;;;;;;24.47;57.63;92821.72;5009427;28;20190;-71
2023/06/27 09:50:17;;;;;;;11.13;10.32;;;;;;;24.42;51.47;92825.44;5009622;28;20234;-72
2023/06/27 09:52:51;;;;;;;10.35;9.63;;;;;;;24.71;52.93;92816.00;5010046;28;20231;-71
2023/06/27 09:55:18;;;;;;;11.88;10.88;;;;;;;25.04;50.86;92813.41;5009382;28;20225;-72
2023/06/27 09:57:44;;;;;;;11.25;10.25;;;;;;;24.67;55.14;92813.28;5009800;28;20195;-71
2023/06/27 10:00:11;;;;;;;9.82;9.10;;;;;;;25.18;49.25;92829.63;5009804;28;20543;-71
2023/06/27 10:02:36;;;;;;;11.00;10.07;;;;;;;24.70;48.46;92819.81;5010131;28;20191;-71
2023/06/27 10:05:03;;;;;;;12.65;10.68;;;;;;;24.98;48.72;92825.53;5010212;28;20226;-72
2023/06/27 10:07:30;;;;;;;12.23;11.13;;;;;;;24.67;52.27;92825.88;5010759;28;20279;-72
2023/06/27 10:09:55;;;;;;;11.43;10.60;;;;;;;25.08;51.07;92820.34;5009591;28;20215;-71
2023/06/27 10:12:21;;;;;;;11.63;10.70;;;;;;;25.09;50.64;92829.13;5016676;28;20809;-71
2023/06/27 10:14:47;;;;;;;10.50;9.65;;;;;;;24.85;50.18;92813.53;5009115;28;20234;-71
2023/06/27 10:17:18;;;;;;;11.65;10.20;;;;;;;24.98;53.64;92826.28;5010037;28;20196;-71
2023/06/27 10:19:48;;;;;;;11.45;10.45;;;;;;;24.98;51.29;92814.84;5022302;28;20226;-72
2023/06/27 10:22:18;;;;;;;10.85;10.10;;;;;;;24.95;50.59;92810.25;5009850;28;20191;-71
2023/06/27 10:24:46;;;;;;;10.95;10.15;;;;;;;25.05;52.13;92810.38;5008599;28;20226;-71
2023/06/27 10:27:13;;;;;;;10.55;9.80;;;;;;;25.06;48.05;92798.53;5041494;28;20208;-71
2023/06/27 10:29:42;;;;;;;9.82;9.02;;;;;;;25.42;47.78;92807.03;5010108;28;20223;-71
2023/06/27 10:32:08;;;;;;;11.68;10.43;;;;;;;25.22;48.16;92811.72;5009732;28;20944;-71
2023/06/27 10:34:42;;;;;;;12.13;9.95;;;;;;;25.11;48.77;92808.91;5008555;28;20229;-71
2023/06/27 10:37:24;;;;;;;10.18;9.38;;;;;;;25.32;48.92;92802.28;5009486;28;20188;-71
2023/06/27 10:39:57;;;;;;;10.35;9.43;;;;;;;25.16;48.71;92805.16;5009373;28;20238;-71
2023/06/27 10:42:22;;;;;;;11.27;10.38;;;;;;;25.37;50.12;92808.09;5008976;28;20183;-71
2023/06/27 10:44:53;;;;;;;11.32;10.30;;;;;;;25.38;48.50;92801.63;5008893;28;20250;-71
2023/06/27 10:47:22;;;;;;;10.65;9.88;;;;;;;25.72;46.01;92795.13;5014498;28;20191;-71
2023/06/27 10:49:49;;;;;;;10.57;9.77;;;;;;;25.53;46.21;92795.28;5008886;28;20235;-71
2023/06/27 10:52:22;;;;;;;10.45;9.70;;;;;;;25.34;45.68;92794.72;5009414;28;20218;-71
2023/06/27 10:55:15;;;;;;;10.65;9.77;;;;;;;25.60;48.05;92792.72;5005331;28;21227;-71
2023/06/27 10:57:45;;;;;;;9.35;8.65;;;;;;;25.81;46.54;92789.44;5009220;28;20178;-71
2023/06/27 11:00:31;;;;;;;10.52;9.73;;;;;;;25.69;41.18;92795.84;5008017;28;20246;-72
2023/06/27 11:02:57;;;;;;;10.27;9.52;;;;;;;25.97;42.52;92795.34;5004838;28;20234;-71
2023/06/27 11:05:37;;;;;;;10.10;9.38;;;;;;;25.29;40.46;92785.81;5008764;28;20247;-71
2023/06/27 11:08:07;;;;;;;10.25;9.45;;;;;;;25.58;46.13;92794.19;5009477;28;20186;-71
2023/06/27 11:10:32;;;;;;;10.13;9.43;;;;;;;26.10;41.28;92789.38;5008621;28;20226;-71
2023/06/27 11:13:21;;;;;;;12.07;9.68;;;;;;;26.22;37.77;92785.66;5016207;28;20183;-71